Time;durP1;ratioP1;P1;durP2;ratioP2;P2;SDS_P1;SDS_P2;PMS_P1;PMS_P2;Temp;Humidity;BMP_temperature;BMP_pressure;BME280_temperature;BME280_humidity;BME280_pressure;Samples;Min_cycle;Max_cycle;Signal;HPM_P1;HPM_P2
2022/08/05 00:00:07;;;;;;;22.47;20.97;;;;;;;;;;5036836;28;20422;-80
2022/08/05 00:02:34;;;;;;;22.67;21.33;;;;;;;;;;5037049;28;20498;-81
2022/08/05 00:05:02;;;;;;;21.90;20.30;;;;;;;;;;5035205;28;20502;-80
2022/08/05 00:07:30;;;;;;;22.30;21.00;;;;;;;;;;5036755;28;20447;-79
2022/08/05 00:09:58;;;;;;;22.97;21.40;;;;;;;;;;5037782;28;20419;-80
2022/08/05 00:12:25;;;;;;;22.97;21.17;;;;;;;;;;5038981;28;20443;-81
2022/08/05 00:14:52;;;;;;;21.63;20.23;;;;;;;;;;5038880;28;20491;-81
2022/08/05 00:17:20;;;;;;;21.77;20.27;;;;;;;;;;5038079;28;20878;-81
2022/08/05 00:19:47;;;;;;;22.67;20.90;;;;;;;;;;5037416;28;20418;-81
2022/08/05 00:22:15;;;;;;;21.43;20.13;;;;;;;;;;5037097;28;20896;-81
2022/08/05 00:24:44;;;;;;;22.63;20.80;;;;;;;;;;5035571;28;20500;-82
2022/08/05 00:27:11;;;;;;;22.53;21.10;;;;;;;;;;5036632;28;20454;-81
2022/08/05 00:29:38;;;;;;;22.53;21.30;;;;;;;;;;5034779;28;20418;-81
2022/08/05 00:32:07;;;;;;;23.13;21.53;;;;;;;;;;5036205;28;20410;-82
2022/08/05 00:34:35;;;;;;;22.40;20.80;;;;;;;;;;5035177;28;20580;-81
2022/08/05 00:37:02;;;;;;;21.47;20.07;;;;;;;;;;5035571;28;20454;-81
2022/08/05 00:39:29;;;;;;;23.43;21.60;;;;;;;;;;5034617;28;20443;-82
2022/08/05 00:41:58;;;;;;;22.70;21.13;;;;;;;;;;5036355;28;20511;-80
2022/08/05 00:44:26;;;;;;;21.80;20.47;;;;;;;;;;5037092;28;20398;-81
2022/08/05 00:46:53;;;;;;;21.77;20.37;;;;;;;;;;5036167;28;20413;-81
2022/08/05 00:49:21;;;;;;;22.00;20.20;;;;;;;;;;5035321;28;20421;-82
2022/08/05 00:51:48;;;;;;;21.63;20.30;;;;;;;;;;5035124;28;20903;-81
2022/08/05 00:54:16;;;;;;;21.37;20.10;;;;;;;;;;5035609;28;20483;-81
2022/08/05 00:56:43;;;;;;;22.33;21.03;;;;;;;;;;5035465;28;20449;-82
2022/08/05 00:59:12;;;;;;;22.27;20.93;;;;;;;;;;5035075;28;20943;-81
2022/08/05 01:01:40;;;;;;;23.00;21.50;;;;;;;;;;5034804;28;20418;-81
2022/08/05 01:04:08;;;;;;;23.80;22.27;;;;;;;;;;5035108;28;20417;-81
2022/08/05 01:06:35;;;;;;;23.03;21.47;;;;;;;;;;5035362;28;20447;-81
2022/08/05 01:09:02;;;;;;;22.53;21.13;;;;;;;;;;5034066;28;20463;-82
2022/08/05 01:11:33;;;;;;;21.47;20.00;;;;;;;;;;5036331;28;20425;-81
2022/08/05 01:14:04;;;;;;;22.07;20.60;;;;;;;;;;5034389;28;20487;-81
2022/08/05 01:16:34;;;;;;;22.63;20.97;;;;;;;;;;5034287;28;20477;-81
2022/08/05 01:19:07;;;;;;;21.77;20.37;;;;;;;;;;5033029;28;20928;-81
2022/08/05 01:21:50;;;;;;;22.90;21.30;;;;;;;;;;5034847;28;20444;-81
2022/08/05 01:24:24;;;;;;;20.33;19.13;;;;;;;;;;5033668;28;20440;-81
2022/08/05 01:26:57;;;;;;;22.83;21.33;;;;;;;;;;5033549;28;20461;-82
2022/08/05 01:29:30;;;;;;;21.77;20.57;;;;;;;;;;5033110;28;20406;-81
2022/08/05 01:32:01;;;;;;;22.30;20.70;;;;;;;;;;5033383;28;20940;-81
2022/08/05 01:34:31;;;;;;;22.63;21.07;;;;;;;;;;5033125;28;20490;-81
2022/08/05 01:37:03;;;;;;;22.17;20.57;;;;;;;;;;5033321;28;20447;-81
2022/08/05 01:39:32;;;;;;;21.83;20.63;;;;;;;;;;5034809;28;20424;-82
2022/08/05 01:42:00;;;;;;;22.70;21.30;;;;;;;;;;5034826;28;20992;-82
2022/08/05 01:44:29;;;;;;;20.77;19.67;;;;;;;;;;5034831;28;20439;-81
2022/08/05 01:46:56;;;;;;;21.03;19.87;;;;;;;;;;5034166;28;20410;-81
2022/08/05 01:49:26;;;;;;;23.20;21.20;;;;;;;;;;5042693;28;20437;-83
2022/08/05 01:51:58;;;;;;;22.57;20.90;;;;;;;;;;5035119;28;21026;-81
2022/08/05 01:54:27;;;;;;;21.83;20.43;;;;;;;;;;5034445;28;20476;-81
2022/08/05 01:56:57;;;;;;;22.50;21.20;;;;;;;;;;5035316;28;20456;-81
2022/08/05 01:59:24;;;;;;;21.93;20.53;;;;;;;;;;5035222;28;20436;-81
2022/08/05 02:01:54;;;;;;;21.90;20.50;;;;;;;;;;5035011;28;20435;-81
2022/08/05 02:04:22;;;;;;;22.10;20.37;;;;;;;;;;5033687;28;20880;-81
2022/08/05 02:06:49;;;;;;;21.87;20.67;;;;;;;;;;5034116;28;20442;-81
2022/08/05 02:09:17;;;;;;;20.77;19.57;;;;;;;;;;5034450;28;20525;-82
2022/08/05 02:11:48;;;;;;;20.40;19.20;;;;;;;;;;5034336;28;20867;-81
2022/08/05 02:14:18;;;;;;;21.07;19.73;;;;;;;;;;5032852;28;20817;-81
2022/08/05 02:16:47;;;;;;;19.93;18.80;;;;;;;;;;5037212;28;20413;-81
2022/08/05 02:19:19;;;;;;;20.33;19.23;;;;;;;;;;5033213;28;20411;-81
2022/08/05 02:21:50;;;;;;;20.67;19.47;;;;;;;;;;5034455;28;20421;-80
2022/08/05 02:24:19;;;;;;;20.20;19.10;;;;;;;;;;5033559;28;20410;-81
2022/08/05 02:26:48;;;;;;;20.87;19.43;;;;;;;;;;5034038;28;20486;-81
2022/08/05 02:29:19;;;;;;;21.10;19.70;;;;;;;;;;5038203;28;20414;-82
2022/08/05 02:31:47;;;;;;;21.40;20.10;;;;;;;;;;5037768;28;20424;-81
2022/08/05 02:34:16;;;;;;;19.73;18.43;;;;;;;;;;5036804;28;20461;-81
2022/08/05 02:36:45;;;;;;;20.70;19.50;;;;;;;;;;5038961;28;20443;-80
2022/08/05 02:39:13;;;;;;;20.80;19.50;;;;;;;;;;5038134;28;20410;-81
2022/08/05 02:41:41;;;;;;;21.90;20.60;;;;;;;;;;5037978;28;20428;-82
2022/08/05 02:44:10;;;;;;;20.13;19.03;;;;;;;;;;5037182;28;20743;-81
2022/08/05 02:46:39;;;;;;;20.77;19.47;;;;;;;;;;5037015;28;20437;-81
2022/08/05 02:49:07;;;;;;;20.60;19.33;;;;;;;;;;5037200;28;20417;-80
2022/08/05 02:51:38;;;;;;;20.93;19.40;;;;;;;;;;5037750;28;20450;-82
2022/08/05 02:54:05;;;;;;;20.60;19.30;;;;;;;;;;5037010;28;20452;-81
2022/08/05 02:56:34;;;;;;;20.70;19.20;;;;;;;;;;5035008;28;20858;-82
2022/08/05 02:59:01;;;;;;;21.40;20.10;;;;;;;;;;5036214;28;20454;-81
2022/08/05 03:01:30;;;;;;;20.70;19.50;;;;;;;;;;5036085;28;20416;-81
2022/08/05 03:03:59;;;;;;;21.17;19.97;;;;;;;;;;5036379;28;20422;-82
2022/08/05 03:06:27;;;;;;;20.73;19.50;;;;;;;;;;5036217;28;20795;-81
2022/08/05 03:08:56;;;;;;;21.70;20.40;;;;;;;;;;5035973;28;20437;-82
2022/08/05 03:11:24;;;;;;;20.87;19.67;;;;;;;;;;5035917;28;20413;-81
2022/08/05 03:13:52;;;;;;;21.83;20.30;;;;;;;;;;5036349;28;20454;-81
2022/08/05 03:16:19;;;;;;;21.60;20.13;;;;;;;;;;5036004;28;20414;-81
2022/08/05 03:18:47;;;;;;;22.00;20.70;;;;;;;;;;5036198;28;20457;-81
2022/08/05 03:21:14;;;;;;;22.50;21.00;;;;;;;;;;5035655;28;20908;-82
2022/08/05 03:23:42;;;;;;;22.00;20.60;;;;;;;;;;5036031;28;20912;-81
2022/08/05 03:26:11;;;;;;;22.93;21.43;;;;;;;;;;5035357;28;20471;-81
2022/08/05 03:28:38;;;;;;;22.67;21.07;;;;;;;;;;5036105;28;20424;-82
2022/08/05 03:31:06;;;;;;;25.80;23.80;;;;;;;;;;5036351;28;20413;-81
2022/08/05 03:33:33;;;;;;;25.53;23.63;;;;;;;;;;5035530;28;20902;-81
2022/08/05 03:36:02;;;;;;;27.00;24.83;;;;;;;;;;5035507;28;20472;-81
2022/08/05 03:38:29;;;;;;;27.73;25.53;;;;;;;;;;5035300;28;20827;-81
2022/08/05 03:40:56;;;;;;;27.97;25.70;;;;;;;;;;5035102;28;20847;-81
2022/08/05 03:43:25;;;;;;;27.27;24.90;;;;;;;;;;5035194;28;20442;-80
2022/08/05 03:45:53;;;;;;;26.40;24.20;;;;;;;;;;5037685;28;20430;-82
2022/08/05 03:48:21;;;;;;;26.90;24.77;;;;;;;;;;5035182;28;20903;-81
2022/08/05 03:50:52;;;;;;;27.37;25.13;;;;;;;;;;5035160;28;20425;-81
2022/08/05 03:53:22;;;;;;;29.70;27.17;;;;;;;;;;5035368;28;20414;-80
2022/08/05 03:55:53;;;;;;;27.97;25.77;;;;;;;;;;5034796;28;20489;-81
2022/08/05 03:58:23;;;;;;;28.53;26.40;;;;;;;;;;5035263;28;20509;-81
2022/08/05 04:00:53;;;;;;;28.90;26.20;;;;;;;;;;5035012;28;20909;-81
2022/08/05 04:03:22;;;;;;;28.20;26.07;;;;;;;;;;5035239;28;20437;-81
2022/08/05 04:05:50;;;;;;;27.87;25.50;;;;;;;;;;5035125;28;20439;-81
2022/08/05 04:08:18;;;;;;;27.27;24.97;;;;;;;;;;5035340;28;20451;-80
2022/08/05 04:10:45;;;;;;;28.57;26.00;;;;;;;;;;5034692;28;20434;-81
2022/08/05 04:13:13;;;;;;;28.53;26.30;;;;;;;;;;5034816;28;20454;-81
2022/08/05 04:15:40;;;;;;;28.03;25.63;;;;;;;;;;5034732;28;20486;-81
2022/08/05 04:18:09;;;;;;;28.10;25.90;;;;;;;;;;5034658;28;20421;-81
2022/08/05 04:20:37;;;;;;;28.03;25.70;;;;;;;;;;5034591;28;20470;-82
2022/08/05 04:23:04;;;;;;;28.77;26.10;;;;;;;;;;5034992;28;20439;-81
2022/08/05 04:25:32;;;;;;;28.20;26.07;;;;;;;;;;5034462;28;20424;-81
2022/08/05 04:28:00;;;;;;;28.67;26.33;;;;;;;;;;5034256;28;20493;-81
2022/08/05 04:30:27;;;;;;;30.27;27.73;;;;;;;;;;5034341;28;20414;-81
2022/08/05 04:32:54;;;;;;;29.87;27.30;;;;;;;;;;5034386;28;20450;-81
2022/08/05 04:35:23;;;;;;;30.37;27.67;;;;;;;;;;5034397;28;20469;-80
2022/08/05 04:37:50;;;;;;;30.77;27.80;;;;;;;;;;5034275;28;20461;-81
2022/08/05 04:40:18;;;;;;;30.10;27.50;;;;;;;;;;5034251;28;20903;-81
2022/08/05 04:42:45;;;;;;;30.17;27.07;;;;;;;;;;5038585;28;20481;-82
2022/08/05 04:45:13;;;;;;;36.30;32.10;;;;;;;;;;5034603;28;20456;-82
2022/08/05 04:47:40;;;;;;;46.27;41.27;;;;;;;;;;5033292;28;20446;-81
2022/08/05 04:50:08;;;;;;;62.03;55.80;;;;;;;;;;5034123;28;20451;-82
2022/08/05 04:52:37;;;;;;;71.63;65.67;;;;;;;;;;5031149;28;20438;-82
2022/08/05 04:55:04;;;;;;;75.47;67.70;;;;;;;;;;5015097;28;21015;-81
2022/08/05 04:57:32;;;;;;;75.57;68.93;;;;;;;;;;5017593;28;20966;-83
2022/08/05 04:59:59;;;;;;;87.00;78.07;;;;;;;;;;5019663;28;20440;-82
2022/08/05 05:02:27;;;;;;;86.53;79.27;;;;;;;;;;5018718;28;20423;-82
2022/08/05 05:04:55;;;;;;;85.63;78.33;;;;;;;;;;5014853;28;20931;-82
2022/08/05 05:07:22;;;;;;;85.23;78.33;;;;;;;;;;5015212;28;20414;-83
2022/08/05 05:09:52;;;;;;;92.97;84.60;;;;;;;;;;5014245;28;20454;-86
2022/08/05 05:12:19;;;;;;;85.73;79.07;;;;;;;;;;5015579;28;20420;-86
2022/08/05 05:14:47;;;;;;;85.33;79.10;;;;;;;;;;5015214;28;21000;-86
2022/08/05 05:17:14;;;;;;;82.10;75.57;;;;;;;;;;5014488;28;20458;-83
2022/08/05 05:19:44;;;;;;;85.80;79.30;;;;;;;;;;5012658;28;20430;-82
2022/08/05 05:22:11;;;;;;;86.23;80.17;;;;;;;;;;5013998;28;20443;-85
2022/08/05 05:24:38;;;;;;;83.50;76.70;;;;;;;;;;5014810;28;20414;-85
2022/08/05 05:27:08;;;;;;;79.23;73.57;;;;;;;;;;5014683;28;20460;-85
2022/08/05 05:29:35;;;;;;;77.93;72.10;;;;;;;;;;5014395;28;20417;-82
2022/08/05 05:32:02;;;;;;;86.73;80.43;;;;;;;;;;5013902;28;20451;-82
2022/08/05 05:34:30;;;;;;;83.70;77.67;;;;;;;;;;5013382;28;20929;-82
2022/08/05 05:36:57;;;;;;;84.23;78.00;;;;;;;;;;5014553;28;20443;-85
2022/08/05 05:39:25;;;;;;;85.33;78.63;;;;;;;;;;5013076;28;20785;-85
2022/08/05 05:41:52;;;;;;;83.73;77.60;;;;;;;;;;5013357;28;20446;-86
2022/08/05 05:44:21;;;;;;;80.80;74.90;;;;;;;;;;5014360;28;20414;-86
2022/08/05 05:46:49;;;;;;;78.33;71.97;;;;;;;;;;5017270;28;20765;-86
2022/08/05 05:49:16;;;;;;;79.23;72.70;;;;;;;;;;5014794;28;20763;-88
2022/08/05 05:51:43;;;;;;;76.77;70.57;;;;;;;;;;5014774;28;20961;-87
2022/08/05 05:54:11;;;;;;;77.77;71.77;;;;;;;;;;5015052;28;20490;-88
2022/08/05 05:56:38;;;;;;;77.27;71.30;;;;;;;;;;5015203;28;20480;-87
2022/08/05 05:59:06;;;;;;;76.97;70.87;;;;;;;;;;5015914;28;20428;-86
2022/08/05 06:01:36;;;;;;;75.13;69.67;;;;;;;;;;5013757;28;20444;-86
2022/08/05 06:04:04;;;;;;;75.13;69.50;;;;;;;;;;5014196;28;20803;-86
2022/08/05 06:06:31;;;;;;;77.23;71.17;;;;;;;;;;5014040;28;20458;-86
2022/08/05 06:08:59;;;;;;;75.10;69.20;;;;;;;;;;5014580;28;20794;-86
2022/08/05 06:11:26;;;;;;;61.47;56.07;;;;;;;;;;5014140;28;20455;-83
2022/08/05 06:13:53;;;;;;;63.67;57.87;;;;;;;;;;5013414;28;20436;-84
2022/08/05 06:16:21;;;;;;;64.60;58.80;;;;;;;;;;5013469;28;20582;-84
2022/08/05 06:18:49;;;;;;;60.87;55.70;;;;;;;;;;5013990;28;20467;-86
2022/08/05 06:21:17;;;;;;;59.90;54.87;;;;;;;;;;5013933;28;20451;-85
2022/08/05 06:23:44;;;;;;;61.00;55.60;;;;;;;;;;5013121;28;20850;-84
2022/08/05 06:26:12;;;;;;;63.17;57.60;;;;;;;;;;5012745;28;20494;-82
2022/08/05 06:28:39;;;;;;;63.17;57.27;;;;;;;;;;5013010;28;20803;-83
2022/08/05 06:31:06;;;;;;;62.67;55.87;;;;;;;;;;5013922;28;20435;-87
2022/08/05 06:33:34;;;;;;;60.40;55.23;;;;;;;;;;5014136;28;20405;-87
2022/08/05 06:36:03;;;;;;;62.77;57.47;;;;;;;;;;5013990;28;20476;-87
2022/08/05 06:38:30;;;;;;;63.63;57.97;;;;;;;;;;5014226;28;20444;-87
2022/08/05 06:40:57;;;;;;;62.90;57.47;;;;;;;;;;5014215;28;20446;-86
2022/08/05 06:43:25;;;;;;;62.20;56.63;;;;;;;;;;5013580;28;20549;-84
2022/08/05 06:45:52;;;;;;;60.00;55.37;;;;;;;;;;5013416;28;20424;-86
2022/08/05 06:48:20;;;;;;;57.43;53.23;;;;;;;;;;5013919;28;20463;-86
2022/08/05 06:50:47;;;;;;;58.53;53.93;;;;;;;;;;5013742;28;20914;-86
2022/08/05 06:53:16;;;;;;;55.97;51.63;;;;;;;;;;5013771;28;20413;-86
2022/08/05 06:55:43;;;;;;;55.50;51.60;;;;;;;;;;5013503;28;21065;-87
2022/08/05 06:58:11;;;;;;;53.53;49.67;;;;;;;;;;5013928;28;20479;-86
2022/08/05 07:00:39;;;;;;;53.50;49.80;;;;;;;;;;5014117;28;20899;-87
2022/08/05 07:03:06;;;;;;;62.03;56.87;;;;;;;;;;5013908;28;20418;-86
2022/08/05 07:05:34;;;;;;;51.97;47.87;;;;;;;;;;5013902;28;20789;-86
2022/08/05 07:08:01;;;;;;;51.13;47.43;;;;;;;;;;5014045;28;20418;-85
2022/08/05 07:10:30;;;;;;;50.37;46.80;;;;;;;;;;5013518;28;20451;-86
2022/08/05 07:18:27;;;;;;;43.67;40.67;;;;;;;;;;5017623;28;20430;-83
2022/08/05 07:20:54;;;;;;;44.93;41.67;;;;;;;;;;5018052;28;20476;-85
2022/08/05 07:23:22;;;;;;;42.97;40.20;;;;;;;;;;5018465;28;20466;-83
2022/08/05 07:25:51;;;;;;;43.87;40.73;;;;;;;;;;5019370;28;20441;-90
2022/08/05 07:28:18;;;;;;;42.33;39.47;;;;;;;;;;5019801;28;20439;-90
2022/08/05 07:30:46;;;;;;;39.43;36.57;;;;;;;;;;5019792;28;20421;-90
2022/08/05 07:33:13;;;;;;;37.97;35.47;;;;;;;;;;5019084;28;20828;-90
2022/08/05 07:35:41;;;;;;;38.53;35.73;;;;;;;;;;5018935;28;20490;-86
2022/08/05 07:38:09;;;;;;;35.40;32.37;;;;;;;;;;5018354;28;20438;-90
2022/08/05 07:40:36;;;;;;;35.77;33.00;;;;;;;;;;5018088;28;20430;-91
2022/08/05 07:43:05;;;;;;;34.13;31.97;;;;;;;;;;5019578;28;20437;-90
2022/08/05 07:45:32;;;;;;;30.93;28.90;;;;;;;;;;5018275;28;20425;-91
2022/08/05 07:48:01;;;;;;;31.53;29.27;;;;;;;;;;5016722;28;20428;-91
2022/08/05 07:50:28;;;;;;;30.87;28.67;;;;;;;;;;5017897;28;20445;-93
2022/08/05 07:52:55;;;;;;;31.87;29.47;;;;;;;;;;5018269;28;20429;-95
2022/08/05 07:55:23;;;;;;;30.00;27.80;;;;;;;;;;5020753;28;20453;-90
2022/08/05 07:57:50;;;;;;;30.30;28.50;;;;;;;;;;5017078;28;20475;-91
2022/08/05 08:00:19;;;;;;;30.37;28.40;;;;;;;;;;5017722;28;20418;-90
2022/08/05 08:02:47;;;;;;;30.83;28.60;;;;;;;;;;5017315;28;20447;-89
2022/08/05 08:05:14;;;;;;;32.30;30.00;;;;;;;;;;5017778;28;20564;-90
2022/08/05 08:07:41;;;;;;;31.40;28.93;;;;;;;;;;5017502;28;20461;-90
2022/08/05 08:10:09;;;;;;;29.97;27.70;;;;;;;;;;5017574;28;20409;-89
2022/08/05 08:12:36;;;;;;;33.00;30.77;;;;;;;;;;5018573;28;20418;-90
2022/08/05 08:15:04;;;;;;;30.00;27.90;;;;;;;;;;5017347;28;20439;-90
2022/08/05 08:17:33;;;;;;;31.83;29.20;;;;;;;;;;5016371;28;20461;-89
2022/08/05 08:20:03;;;;;;;32.03;29.73;;;;;;;;;;5015344;28;20492;-90
2022/08/05 08:22:31;;;;;;;33.30;30.83;;;;;;;;;;5016682;28;20942;-90
2022/08/05 08:24:58;;;;;;;31.63;29.20;;;;;;;;;;5015785;28;20453;-90
2022/08/05 08:27:26;;;;;;;31.27;29.03;;;;;;;;;;5015929;28;20470;-90
2022/08/05 08:29:53;;;;;;;31.20;28.80;;;;;;;;;;5016934;28;20448;-89
2022/08/05 08:32:20;;;;;;;31.13;28.97;;;;;;;;;;5016814;28;20413;-88
2022/08/05 08:34:50;;;;;;;29.50;27.30;;;;;;;;;;5016915;28;20443;-89
2022/08/05 08:37:17;;;;;;;30.00;27.90;;;;;;;;;;5016417;28;20487;-88
2022/08/05 08:39:45;;;;;;;28.63;26.73;;;;;;;;;;5015973;28;20786;-89
2022/08/05 08:42:13;;;;;;;28.53;26.47;;;;;;;;;;5016406;28;20940;-85
2022/08/05 08:44:40;;;;;;;27.27;25.47;;;;;;;;;;5015957;28;20450;-90
2022/08/05 08:47:09;;;;;;;26.57;24.83;;;;;;;;;;5016171;28;20446;-90
2022/08/05 08:49:37;;;;;;;27.00;25.03;;;;;;;;;;5015868;28;20905;-90
2022/08/05 08:52:12;;;;;;;26.37;24.67;;;;;;;;;;5016425;28;20926;-89
2022/08/05 08:54:40;;;;;;;26.63;24.70;;;;;;;;;;5016054;28;20857;-88
2022/08/05 08:57:07;;;;;;;24.43;22.83;;;;;;;;;;5014543;28;20971;-90
2022/08/05 08:59:35;;;;;;;27.40;25.20;;;;;;;;;;5014702;28;20445;-88
2022/08/05 09:02:06;;;;;;;36.10;33.70;;;;;;;;;;5015659;28;20501;-87
2022/08/05 09:04:36;;;;;;;34.53;31.97;;;;;;;;;;5016515;28;20414;-88
2022/08/05 09:07:04;;;;;;;36.63;34.07;;;;;;;;;;5017522;28;20425;-88
2022/08/05 09:09:33;;;;;;;39.13;36.40;;;;;;;;;;5016095;28;20455;-86
2022/08/05 09:12:00;;;;;;;39.23;36.53;;;;;;;;;;5017000;28;20447;-86
2022/08/05 09:14:28;;;;;;;39.00;36.10;;;;;;;;;;4998244;28;20455;-86
2022/08/05 09:16:56;;;;;;;34.73;32.27;;;;;;;;;;5015255;28;20468;-88
2022/08/05 09:19:23;;;;;;;37.27;34.07;;;;;;;;;;5015338;28;20969;-87
2022/08/05 09:21:50;;;;;;;34.13;31.73;;;;;;;;;;5016821;28;20413;-88
2022/08/05 09:24:18;;;;;;;30.40;28.43;;;;;;;;;;5021276;28;20463;-88
2022/08/05 09:26:51;;;;;;;30.00;28.00;;;;;;;;;;5017403;28;20482;-89
2022/08/05 09:29:18;;;;;;;28.63;26.50;;;;;;;;;;5015623;28;20421;-88
2022/08/05 09:32:01;;;;;;;26.90;25.20;;;;;;;;;;5015183;28;20831;-87
2022/08/05 09:34:46;;;;;;;27.03;25.23;;;;;;;;;;5013989;28;20421;-84
2022/08/05 09:37:18;;;;;;;27.03;25.13;;;;;;;;;;5014175;28;20465;-84
2022/08/05 09:39:45;;;;;;;27.80;26.10;;;;;;;;;;5014171;28;20421;-85
2022/08/05 09:42:15;;;;;;;27.90;25.97;;;;;;;;;;5014590;28;20438;-85
2022/08/05 09:44:44;;;;;;;26.93;25.07;;;;;;;;;;5014410;28;20498;-86
2022/08/05 09:47:13;;;;;;;25.17;23.30;;;;;;;;;;5014717;28;20450;-87
2022/08/05 09:49:41;;;;;;;26.07;24.47;;;;;;;;;;5014963;28;20918;-88
2022/08/05 09:52:17;;;;;;;26.33;24.83;;;;;;;;;;5016482;28;20482;-89
2022/08/05 09:54:52;;;;;;;27.23;25.43;;;;;;;;;;5015648;28;20798;-89
2022/08/05 09:57:30;;;;;;;25.73;24.00;;;;;;;;;;5014394;28;20495;-86
2022/08/05 09:59:59;;;;;;;28.37;26.40;;;;;;;;;;5016645;28;20482;-87
2022/08/05 10:02:33;;;;;;;26.77;25.00;;;;;;;;;;5017525;28;20509;-87
2022/08/05 10:05:05;;;;;;;29.00;26.93;;;;;;;;;;5020714;28;20439;-87
2022/08/05 10:07:43;;;;;;;31.17;28.77;;;;;;;;;;5028651;28;20459;-87
2022/08/05 10:10:11;;;;;;;28.70;26.30;;;;;;;;;;5021243;28;20920;-86
2022/08/05 10:12:42;;;;;;;29.57;27.27;;;;;;;;;;5015615;28;20420;-87
2022/08/05 10:15:21;;;;;;;29.47;27.37;;;;;;;;;;5018021;28;20418;-87
2022/08/05 10:18:07;;;;;;;29.67;27.57;;;;;;;;;;5018441;28;20473;-85
2022/08/05 10:20:36;;;;;;;29.37;27.03;;;;;;;;;;5014972;28;20911;-85
2022/08/05 10:23:04;;;;;;;28.30;26.40;;;;;;;;;;5015227;28;20436;-84
2022/08/05 10:25:31;;;;;;;28.80;26.70;;;;;;;;;;5013631;28;20426;-84
2022/08/05 10:28:01;;;;;;;24.50;23.00;;;;;;;;;;5015432;28;20485;-88
2022/08/05 10:30:29;;;;;;;23.03;21.60;;;;;;;;;;5015854;28;20770;-86
2022/08/05 10:32:58;;;;;;;23.00;21.50;;;;;;;;;;5014973;28;21040;-87
2022/08/05 10:35:26;;;;;;;23.00;21.60;;;;;;;;;;5015325;28;20418;-87
2022/08/05 10:37:54;;;;;;;23.47;21.60;;;;;;;;;;5015664;28;20461;-85
2022/08/05 10:40:26;;;;;;;22.93;21.40;;;;;;;;;;5014374;28;20542;-84
2022/08/05 10:42:54;;;;;;;23.60;21.97;;;;;;;;;;5014574;28;20429;-84
2022/08/05 10:45:27;;;;;;;22.57;21.27;;;;;;;;;;5013909;28;20463;-85
2022/08/05 10:47:55;;;;;;;23.40;22.07;;;;;;;;;;5015082;28;20426;-85
2022/08/05 10:50:22;;;;;;;22.20;20.90;;;;;;;;;;5018158;28;20501;-84
2022/08/05 10:52:55;;;;;;;22.73;21.33;;;;;;;;;;5018211;28;20454;-84
2022/08/05 10:55:23;;;;;;;22.17;20.90;;;;;;;;;;5018107;28;20507;-80
2022/08/05 10:58:07;;;;;;;22.60;21.20;;;;;;;;;;5017359;28;21008;-84
2022/08/05 11:00:36;;;;;;;22.60;21.20;;;;;;;;;;5018488;28;20421;-84
2022/08/05 11:03:14;;;;;;;22.30;21.00;;;;;;;;;;5017648;28;20442;-85
2022/08/05 11:05:42;;;;;;;21.50;20.30;;;;;;;;;;5017324;28;20425;-84
2022/08/05 11:08:10;;;;;;;21.50;20.30;;;;;;;;;;5017868;28;20547;-83
2022/08/05 11:10:42;;;;;;;22.30;20.53;;;;;;;;;;5019608;28;20426;-85
2022/08/05 11:13:11;;;;;;;23.50;22.00;;;;;;;;;;5020621;28;20454;-85
2022/08/05 11:15:42;;;;;;;22.57;21.17;;;;;;;;;;5020504;28;20429;-86
2022/08/05 11:18:23;;;;;;;23.00;21.37;;;;;;;;;;5019124;28;20465;-86
2022/08/05 11:20:51;;;;;;;22.57;21.07;;;;;;;;;;5019493;28;20414;-86
2022/08/05 11:23:31;;;;;;;21.80;20.30;;;;;;;;;;5021162;28;20466;-86
2022/08/05 11:26:07;;;;;;;22.53;21.03;;;;;;;;;;5023498;28;20438;-86
2022/08/05 11:28:38;;;;;;;20.50;19.30;;;;;;;;;;5021729;28;20448;-86
2022/08/05 11:31:27;;;;;;;21.60;20.07;;;;;;;;;;5019677;28;20505;-87
2022/08/05 11:33:57;;;;;;;21.30;19.83;;;;;;;;;;5018184;28;20481;-87
2022/08/05 11:36:40;;;;;;;22.20;20.90;;;;;;;;;;5016851;28;20446;-86
2022/08/05 11:39:08;;;;;;;21.10;19.90;;;;;;;;;;5018697;28;20451;-86
2022/08/05 11:41:35;;;;;;;21.30;20.07;;;;;;;;;;5019527;28;20422;-85
2022/08/05 11:44:05;;;;;;;21.20;20.00;;;;;;;;;;5020257;28;20453;-86
2022/08/05 11:46:33;;;;;;;22.63;21.30;;;;;;;;;;5018551;28;20964;-86
2022/08/05 11:49:04;;;;;;;21.70;20.50;;;;;;;;;;5021372;28;20435;-84
2022/08/05 11:51:32;;;;;;;22.20;20.90;;;;;;;;;;5020123;28;20807;-83
2022/08/05 11:54:00;;;;;;;19.57;18.60;;;;;;;;;;5020522;28;20451;-86
2022/08/05 11:56:43;;;;;;;21.87;20.63;;;;;;;;;;5021566;28;20463;-86
2022/08/05 11:59:13;;;;;;;20.47;19.37;;;;;;;;;;5020244;28;20467;-88
2022/08/05 12:01:52;;;;;;;21.43;20.03;;;;;;;;;;5020222;28;20459;-88
2022/08/05 12:04:22;;;;;;;21.03;19.93;;;;;;;;;;5021533;28;20443;-88
2022/08/05 12:06:50;;;;;;;21.63;20.43;;;;;;;;;;5022594;28;20406;-87
2022/08/05 12:09:19;;;;;;;22.17;20.73;;;;;;;;;;5021842;28;20479;-89
2022/08/05 12:11:47;;;;;;;21.37;19.87;;;;;;;;;;5021665;28;20482;-89
2022/08/05 12:14:14;;;;;;;20.70;19.60;;;;;;;;;;5021475;28;20953;-89
2022/08/05 12:16:43;;;;;;;21.47;20.27;;;;;;;;;;5021762;28;20462;-89
2022/08/05 12:19:12;;;;;;;21.77;20.50;;;;;;;;;;5021580;28;20440;-88
2022/08/05 12:21:45;;;;;;;21.77;20.47;;;;;;;;;;5019202;28;20464;-87
2022/08/05 12:24:14;;;;;;;22.43;20.90;;;;;;;;;;5023447;28;20501;-88
2022/08/05 12:26:43;;;;;;;21.17;19.93;;;;;;;;;;5023815;28;20549;-90
2022/08/05 12:29:12;;;;;;;22.17;20.80;;;;;;;;;;5021746;28;20443;-88
2022/08/05 12:31:41;;;;;;;21.17;19.80;;;;;;;;;;5021144;28;20463;-87
2022/08/05 12:34:09;;;;;;;21.13;19.83;;;;;;;;;;5022830;28;20427;-88
2022/08/05 12:36:37;;;;;;;22.67;21.40;;;;;;;;;;5023707;28;20430;-88
2022/08/05 12:39:07;;;;;;;23.93;22.40;;;;;;;;;;5025799;28;20498;-89
2022/08/05 12:41:36;;;;;;;22.27;20.93;;;;;;;;;;5025619;28;20470;-87
2022/08/05 12:44:05;;;;;;;22.80;21.47;;;;;;;;;;5026522;28;20460;-90
2022/08/05 12:46:35;;;;;;;22.30;21.00;;;;;;;;;;5022485;28;20426;-90
2022/08/05 12:49:06;;;;;;;22.27;21.00;;;;;;;;;;5028808;28;20451;-90
2022/08/05 12:51:44;;;;;;;22.30;20.87;;;;;;;;;;5028000;28;20411;-89
2022/08/05 12:54:18;;;;;;;22.60;21.30;;;;;;;;;;5022637;28;20496;-88
2022/08/05 12:56:48;;;;;;;21.80;20.60;;;;;;;;;;5022918;28;20543;-89
2022/08/05 12:59:16;;;;;;;22.03;20.63;;;;;;;;;;5022427;28;20433;-89
2022/08/05 13:01:44;;;;;;;21.60;20.40;;;;;;;;;;5020396;28;20434;-89
2022/08/05 13:04:12;;;;;;;22.03;20.73;;;;;;;;;;5018417;28;20426;-89
2022/08/05 13:06:41;;;;;;;22.23;21.03;;;;;;;;;;5018673;28;20467;-87
2022/08/05 13:09:09;;;;;;;21.83;20.50;;;;;;;;;;5018100;28;20414;-87
2022/08/05 13:11:43;;;;;;;22.50;21.10;;;;;;;;;;5017504;28;20415;-87
2022/08/05 13:14:21;;;;;;;23.10;21.80;;;;;;;;;;5017930;28;20436;-86
2022/08/05 13:16:49;;;;;;;24.00;22.60;;;;;;;;;;5017328;28;20805;-86
2022/08/05 13:19:16;;;;;;;23.93;22.40;;;;;;;;;;5016661;28;20961;-87
2022/08/05 13:21:46;;;;;;;24.27;22.67;;;;;;;;;;5017378;28;20460;-87
2022/08/05 13:24:14;;;;;;;22.70;21.40;;;;;;;;;;5016824;28;20870;-87
2022/08/05 13:26:43;;;;;;;23.70;22.30;;;;;;;;;;5016899;28;20487;-86
2022/08/05 13:29:10;;;;;;;23.37;21.77;;;;;;;;;;5016997;28;20419;-87
2022/08/05 13:31:38;;;;;;;24.23;22.73;;;;;;;;;;5017490;28;20479;-87
2022/08/05 13:34:06;;;;;;;24.30;22.53;;;;;;;;;;5019954;28;20411;-87
2022/08/05 13:36:34;;;;;;;23.53;22.03;;;;;;;;;;5016718;28;20503;-86
2022/08/05 13:39:01;;;;;;;23.53;22.13;;;;;;;;;;5017034;28;20485;-86
2022/08/05 13:41:29;;;;;;;22.70;21.20;;;;;;;;;;5016545;28;20407;-88
2022/08/05 13:43:58;;;;;;;24.10;22.60;;;;;;;;;;5017549;28;20854;-82
2022/08/05 13:46:26;;;;;;;23.10;21.63;;;;;;;;;;5019101;28;20407;-85
2022/08/05 13:48:54;;;;;;;23.87;22.57;;;;;;;;;;5018203;28;20507;-82
2022/08/05 13:51:27;;;;;;;23.40;22.00;;;;;;;;;;5015287;28;20444;-82
2022/08/05 13:53:54;;;;;;;24.30;22.63;;;;;;;;;;5015720;28;20920;-82
2022/08/05 13:56:22;;;;;;;23.30;22.00;;;;;;;;;;5021509;28;20458;-82
2022/08/05 13:58:49;;;;;;;23.87;22.37;;;;;;;;;;5018929;28;20848;-82
2022/08/05 14:01:18;;;;;;;22.93;21.60;;;;;;;;;;5017108;28;20434;-82
2022/08/05 14:05:09;;;;;;;25.33;23.73;;;;;;;;;;5019830;28;20537;-81
2022/08/05 14:06:32;;;;;;;25.10;23.50;;;;;;;;;;5019765;28;20470;-82
2022/08/05 14:09:00;;;;;;;25.27;23.77;;;;;;;;;;5016568;28;20962;-83
2022/08/05 14:11:28;;;;;;;23.43;22.03;;;;;;;;;;5014842;28;20477;-83
2022/08/05 14:13:56;;;;;;;23.60;22.20;;;;;;;;;;5011060;28;20477;-83
2022/08/05 14:16:25;;;;;;;23.20;21.80;;;;;;;;;;5014385;28;20469;-82
2022/08/05 14:18:52;;;;;;;23.40;22.10;;;;;;;;;;5013765;28;20878;-82
2022/08/05 14:21:20;;;;;;;24.80;23.20;;;;;;;;;;5014103;28;20418;-84
2022/08/05 14:23:47;;;;;;;21.80;20.60;;;;;;;;;;5013865;28;20452;-82
2022/08/05 14:26:15;;;;;;;23.97;22.40;;;;;;;;;;5013471;28;20477;-83
2022/08/05 14:28:42;;;;;;;23.80;22.30;;;;;;;;;;5012424;28;20456;-83
2022/08/05 14:31:10;;;;;;;24.10;22.60;;;;;;;;;;5013917;28;20447;-84